Time;durP1;ratioP1;P1;durP2;ratioP2;P2;SDS_P1;SDS_P2;PMS_P1;PMS_P2;Temp;Humidity;BMP_temperature;BMP_pressure;BME280_temperature;BME280_humidity;BME280_pressure;Samples;Min_cycle;Max_cycle;Signal;HPM_P1;HPM_P2
2023/01/03 00:01:53;;;;;;;20.23;11.97;;;5.20;99.90;;;;;;5051265;28;20528;-59
2023/01/03 00:04:19;;;;;;;22.07;12.40;;;5.10;99.90;;;;;;5049281;28;20535;-60
2023/01/03 00:06:47;;;;;;;20.40;12.23;;;5.10;99.90;;;;;;5050769;28;20056;-59
2023/01/03 00:09:16;;;;;;;24.65;13.52;;;5.10;99.90;;;;;;5050802;28;20056;-59
2023/01/03 00:14:31;;;;;;;18.05;10.98;;;5.20;99.90;;;;;;5047791;28;20033;-58
2023/01/03 00:16:59;;;;;;;18.52;11.85;;;5.20;99.90;;;;;;5050632;28;20033;-59
2023/01/03 00:19:26;;;;;;;18.67;10.38;;;5.20;99.90;;;;;;5050693;28;20051;-57
2023/01/03 00:21:53;;;;;;;19.92;12.30;;;5.20;99.90;;;;;;5049635;28;20060;-58
2023/01/03 00:24:19;;;;;;;17.65;11.38;;;5.20;99.90;;;;;;5049235;28;20047;-57
2023/01/03 00:26:44;;;;;;;19.42;11.55;;;5.20;99.90;;;;;;5050508;28;20143;-59
2023/01/03 00:29:11;;;;;;;15.00;10.83;;;5.20;99.90;;;;;;5050810;28;20588;-59
2023/01/03 00:31:37;;;;;;;16.88;10.73;;;5.20;99.90;;;;;;5050956;28;20051;-57
2023/01/03 00:34:03;;;;;;;23.35;11.43;;;5.30;99.90;;;;;;5049344;28;20406;-58
2023/01/03 00:36:29;;;;;;;17.92;10.98;;;5.30;99.90;;;;;;5050022;28;20040;-60
2023/01/03 00:38:54;;;;;;;18.10;12.10;;;5.30;99.90;;;;;;5049700;28;20037;-60
2023/01/03 00:41:20;;;;;;;25.70;11.60;;;5.30;99.90;;;;;;5050169;28;20375;-59
2023/01/03 00:43:48;;;;;;;21.83;11.68;;;5.30;99.90;;;;;;5049620;28;20037;-60
2023/01/03 00:46:19;;;;;;;18.80;10.57;;;5.30;99.90;;;;;;5047358;28;20029;-59
2023/01/03 00:48:45;;;;;;;20.23;10.93;;;5.30;99.90;;;;;;5049386;28;20025;-56
2023/01/03 00:51:16;;;;;;;16.75;10.98;;;5.30;99.90;;;;;;5049844;28;20037;-59
2023/01/03 00:53:44;;;;;;;20.25;11.50;;;5.30;99.90;;;;;;5044394;28;20115;-57
2023/01/03 00:56:12;;;;;;;21.58;10.93;;;5.20;99.90;;;;;;5046508;28;20125;-59
2023/01/03 00:58:39;;;;;;;17.95;10.43;;;5.20;99.90;;;;;;5049482;28;20041;-60
2023/01/03 01:01:14;;;;;;;23.55;11.45;;;5.20;99.90;;;;;;5049320;28;20039;-57
2023/01/03 01:03:43;;;;;;;18.65;10.55;;;5.20;99.90;;;;;;5049178;28;20040;-58
2023/01/03 01:06:20;;;;;;;22.00;11.32;;;5.10;99.90;;;;;;5048116;28;20355;-58
2023/01/03 01:08:47;;;;;;;19.48;9.18;;;5.10;99.90;;;;;;5049064;28;20576;-58
2023/01/03 01:11:14;;;;;;;13.63;9.00;;;5.10;99.90;;;;;;5047531;28;20033;-58
2023/01/03 01:13:41;;;;;;;14.45;8.82;;;5.00;99.90;;;;;;5049141;28;20108;-59
2023/01/03 01:16:14;;;;;;;18.60;9.75;;;4.90;99.90;;;;;;5049883;28;20533;-57
2023/01/03 01:18:41;;;;;;;22.98;10.65;;;4.80;99.90;;;;;;5049077;28;20507;-56
2023/01/03 01:21:09;;;;;;;18.60;11.48;;;4.70;99.90;;;;;;5049037;28;20579;-59
2023/01/03 01:23:36;;;;;;;21.90;10.82;;;4.60;99.90;;;;;;5048598;28;20540;-55
2023/01/03 01:26:03;;;;;;;18.33;12.32;;;4.60;99.90;;;;;;5049189;28;20075;-59
2023/01/03 01:28:29;;;;;;;16.00;11.52;;;4.50;99.90;;;;;;5049254;28;20033;-60
2023/01/03 01:30:57;;;;;;;17.13;11.30;;;4.40;99.90;;;;;;5050040;28;20112;-57
2023/01/03 01:33:23;;;;;;;20.63;12.80;;;4.30;99.90;;;;;;5048708;28;20036;-60
2023/01/03 01:35:48;;;;;;;26.80;12.50;;;4.30;99.90;;;;;;5049149;28;20477;-57
2023/01/03 01:38:14;;;;;;;21.30;13.33;;;4.20;99.90;;;;;;5049518;28;20033;-58
2023/01/03 01:40:40;;;;;;;21.90;13.23;;;4.20;99.90;;;;;;5048766;28;20041;-59
2023/01/03 01:46:24;;;;;;;25.88;13.07;;;4.30;99.90;;;;;;5048473;28;20049;-59
2023/01/03 01:49:04;;;;;;;21.52;12.38;;;4.20;99.90;;;;;;5047014;28;20506;-60
2023/01/03 01:51:32;;;;;;;21.38;13.10;;;4.20;99.90;;;;;;5048627;28;20059;-59
2023/01/03 01:54:00;;;;;;;23.38;13.98;;;4.10;99.90;;;;;;5048344;28;20033;-58
2023/01/03 01:56:35;;;;;;;20.27;13.88;;;4.10;99.90;;;;;;5048173;28;20108;-60
2023/01/03 01:59:01;;;;;;;22.58;14.35;;;4.00;99.90;;;;;;5049168;28;20040;-57
2023/01/03 02:01:28;;;;;;;25.10;15.02;;;4.10;99.90;;;;;;5048045;28;20040;-58
2023/01/03 02:04:02;;;;;;;;;;;4.10;99.90;;;;;;5047168;28;20041;-58
2023/01/03 02:06:30;;;;;;;27.55;16.27;;;4.10;99.90;;;;;;5047789;28;20007;-60
2023/01/03 02:08:56;;;;;;;29.88;16.17;;;4.10;99.90;;;;;;5048437;28;20754;-56
2023/01/03 02:11:49;;;;;;;34.27;17.97;;;4.10;99.90;;;;;;5049007;28;20044;-57
2023/01/03 02:14:41;;;;;;;30.92;17.42;;;4.00;99.90;;;;;;5047805;28;20037;-59
2023/01/03 02:17:10;;;;;;;31.25;16.95;;;4.00;99.90;;;;;;5028123;28;20056;-57
2023/01/03 02:19:41;;;;;;;28.77;18.02;;;4.00;99.90;;;;;;5048619;28;20379;-57
2023/01/03 02:22:19;;;;;;;30.67;19.65;;;4.00;99.90;;;;;;5048284;28;20123;-58
2023/01/03 02:25:04;;;;;;;35.05;18.67;;;4.00;99.90;;;;;;5047098;28;20049;-59
2023/01/03 02:27:48;;;;;;;47.35;19.05;;;3.90;99.90;;;;;;5047648;28;20041;-57
2023/01/03 02:30:31;;;;;;;36.05;18.90;;;3.90;99.90;;;;;;5046170;28;20033;-59
2023/01/03 02:33:34;;;;;;;29.52;18.05;;;3.90;99.90;;;;;;5047402;28;20039;-58
2023/01/03 02:36:13;;;;;;;24.35;15.50;;;3.90;99.90;;;;;;5047635;28;20410;-59
2023/01/03 02:39:13;;;;;;;25.00;17.05;;;3.90;99.90;;;;;;5048099;28;20037;-58
2023/01/03 02:42:56;;;;;;;32.58;19.55;;;3.90;99.90;;;;;;5048608;28;20052;-60
2023/01/03 02:44:53;;;;;;;29.58;17.80;;;3.80;99.90;;;;;;5046717;28;20048;-58
2023/01/03 02:47:23;;;;;;;34.33;20.00;;;3.80;99.90;;;;;;5048148;28;20029;-57
2023/01/03 02:49:51;;;;;;;31.40;19.52;;;3.80;99.90;;;;;;5046157;28;20048;-59
2023/01/03 02:52:26;;;;;;;33.42;19.77;;;3.80;99.90;;;;;;5048397;28;20033;-59
2023/01/03 02:55:05;;;;;;;33.42;18.20;;;3.80;99.90;;;;;;5046776;28;20438;-60
2023/01/03 02:57:39;;;;;;;25.65;17.27;;;3.80;99.90;;;;;;5047513;28;20545;-58
2023/01/03 03:00:15;;;;;;;26.33;17.30;;;3.80;99.90;;;;;;5048461;28;20037;-57
2023/01/03 03:02:48;;;;;;;32.30;17.40;;;3.80;99.90;;;;;;5046034;28;20048;-57
2023/01/03 03:05:21;;;;;;;32.00;18.45;;;3.70;99.90;;;;;;5047338;28;20045;-57
2023/01/03 03:07:46;;;;;;;31.42;19.75;;;3.70;99.90;;;;;;5047738;28;20145;-57
2023/01/03 03:13:29;;;;;;;32.83;19.55;;;3.70;99.90;;;;;;5046945;28;20041;-60
2023/01/03 03:24:48;;;;;;;26.98;18.45;;;3.60;99.90;;;;;;5048631;28;20049;-58
2023/01/03 03:25:12;;;;;;;38.45;21.35;;;3.70;99.90;;;;;;5046523;28;20502;-58
2023/01/03 03:30:31;;;;;;;32.13;21.23;;;3.70;99.90;;;;;;5051902;28;20041;-57
2023/01/03 03:33:04;;;;;;;39.42;22.70;;;3.70;99.90;;;;;;5049884;28;20041;-59
2023/01/03 03:35:49;;;;;;;40.28;23.83;;;3.80;99.90;;;;;;5049828;28;20051;-59
2023/01/03 03:38:21;;;;;;;37.13;23.40;;;3.70;99.90;;;;;;5047465;28;20037;-59
2023/01/03 03:46:44;;;;;;;35.40;20.80;;;3.70;99.90;;;;;;5050901;28;20056;-59
2023/01/03 03:49:38;;;;;;;34.85;22.10;;;3.70;99.90;;;;;;5051112;28;20033;-58
2023/01/03 03:52:09;;;;;;;37.17;22.55;;;3.70;99.90;;;;;;5051170;28;20139;-60
2023/01/03 03:54:37;;;;;;;37.28;22.42;;;3.70;99.90;;;;;;5050188;28;20040;-58
2023/01/03 03:57:28;;;;;;;35.28;21.83;;;3.70;99.90;;;;;;5051032;28;20036;-57
2023/01/03 04:00:03;;;;;;;36.58;20.00;;;3.70;99.90;;;;;;5032060;28;20053;-60
2023/01/03 04:02:31;;;;;;;40.40;21.90;;;3.70;99.90;;;;;;5051168;28;20033;-59
2023/01/03 04:05:01;;;;;;;37.70;22.98;;;3.70;99.90;;;;;;5049684;28;20059;-57
2023/01/03 04:07:27;;;;;;;38.17;24.40;;;3.60;99.90;;;;;;5050974;28;20040;-57
2023/01/03 04:09:53;;;;;;;35.90;24.00;;;3.60;99.90;;;;;;5051215;28;20055;-58
2023/01/03 04:12:18;;;;;;;43.10;26.97;;;3.60;99.90;;;;;;5050900;28;20025;-57
2023/01/03 04:14:44;;;;;;;40.53;24.33;;;3.60;99.90;;;;;;5050092;28;20067;-57
2023/01/03 04:17:09;;;;;;;41.97;25.03;;;3.60;99.90;;;;;;5049996;28;20043;-59
2023/01/03 04:19:35;;;;;;;42.83;25.67;;;3.60;99.90;;;;;;5050960;28;20737;-57
2023/01/03 04:22:01;;;;;;;43.53;24.93;;;3.60;99.90;;;;;;5050728;28;20041;-59
2023/01/03 04:24:26;;;;;;;46.72;27.98;;;3.50;99.90;;;;;;5049663;28;20115;-59
2023/01/03 04:26:52;;;;;;;48.53;29.30;;;3.50;99.90;;;;;;5050281;28;20490;-59
2023/01/03 04:29:17;;;;;;;46.10;28.80;;;3.50;99.90;;;;;;5050636;28;20490;-59
2023/01/03 04:31:43;;;;;;;46.60;28.37;;;3.50;99.90;;;;;;5047870;28;20128;-58
2023/01/03 04:34:08;;;;;;;51.07;30.83;;;3.50;99.90;;;;;;5048923;28;20033;-60
2023/01/03 04:36:34;;;;;;;51.33;30.23;;;3.40;99.90;;;;;;5050138;28;20037;-60
2023/01/03 04:39:00;;;;;;;46.70;28.10;;;3.40;99.90;;;;;;5049851;28;20389;-59
2023/01/03 04:41:25;;;;;;;48.00;27.90;;;3.40;99.90;;;;;;5050509;28;20045;-60
2023/01/03 04:44:06;;;;;;;51.87;31.70;;;3.30;99.90;;;;;;5049306;28;20045;-60
2023/01/03 04:46:34;;;;;;;48.78;30.60;;;3.30;99.90;;;;;;5049536;28;20124;-58
2023/01/03 04:49:00;;;;;;;48.15;31.23;;;3.30;99.90;;;;;;5050011;28;20043;-56
2023/01/03 04:51:27;;;;;;;48.33;32.40;;;3.30;99.90;;;;;;5050756;28;20116;-59
2023/01/03 04:53:52;;;;;;;48.95;31.15;;;3.30;99.90;;;;;;5048388;28;20594;-58
2023/01/03 04:56:26;;;;;;;46.53;31.23;;;3.30;99.90;;;;;;5049642;28;20120;-57
2023/01/03 04:58:52;;;;;;;48.65;31.88;;;3.30;99.90;;;;;;5049266;28;20037;-59
2023/01/03 05:01:17;;;;;;;49.83;29.40;;;3.30;99.90;;;;;;5047708;28;20072;-59
2023/01/03 05:03:43;;;;;;;48.13;29.57;;;3.30;99.90;;;;;;5048400;28;20033;-60
2023/01/03 05:06:11;;;;;;;48.77;30.87;;;3.20;99.90;;;;;;5049861;28;20284;-58
2023/01/03 05:08:37;;;;;;;49.50;30.65;;;3.20;99.90;;;;;;5049667;28;20076;-57
2023/01/03 05:11:03;;;;;;;;;;;3.20;99.90;;;;;;5050114;28;20056;-58
2023/01/03 05:13:30;;;;;;;47.60;28.95;;;3.20;99.90;;;;;;5048933;28;19963;-59
2023/01/03 05:15:55;;;;;;;48.17;31.33;;;3.20;99.90;;;;;;5049331;28;20120;-57
2023/01/03 05:18:21;;;;;;;46.63;28.63;;;3.20;99.90;;;;;;5049364;28;20147;-57
2023/01/03 05:26:18;;;;;;;47.88;29.92;;;3.20;99.90;;;;;;5045882;28;20041;-56
2023/01/03 05:28:46;;;;;;;53.90;32.30;;;3.20;99.90;;;;;;5048938;28;20037;-58
2023/01/03 05:31:12;;;;;;;47.08;31.15;;;3.20;99.90;;;;;;5049046;28;20036;-58
2023/01/03 05:33:39;;;;;;;49.08;33.50;;;3.20;99.90;;;;;;5048074;28;20076;-59
2023/01/03 05:36:05;;;;;;;51.00;31.73;;;3.20;99.90;;;;;;5049004;28;20405;-59
2023/01/03 05:38:31;;;;;;;53.60;32.30;;;3.20;99.90;;;;;;5046366;28;20045;-58
2023/01/03 05:40:56;;;;;;;56.00;33.20;;;3.20;99.90;;;;;;5049208;28;20044;-59
2023/01/03 05:43:22;;;;;;;55.43;33.93;;;3.20;99.90;;;;;;5048335;28;20098;-58
2023/01/03 05:45:52;;;;;;;49.20;31.37;;;3.20;99.90;;;;;;5048744;28;20103;-57
2023/01/03 05:48:19;;;;;;;57.38;34.88;;;3.20;99.90;;;;;;5048266;28;20048;-59
2023/01/03 05:50:46;;;;;;;58.25;33.08;;;3.20;99.90;;;;;;5048341;28;20033;-57
2023/01/03 05:53:11;;;;;;;;;;;3.20;99.90;;;;;;5048614;28;20044;-58
2023/01/03 05:55:38;;;;;;;55.03;32.50;;;3.20;99.90;;;;;;5048044;28;20421;-58
2023/01/03 05:58:04;;;;;;;;;;;3.10;99.90;;;;;;5049070;28;20391;-57
2023/01/03 06:00:30;;;;;;;50.97;31.48;;;3.10;99.90;;;;;;5048957;28;20492;-57
2023/01/03 06:02:55;;;;;;;348.47;50.80;;;3.10;99.90;;;;;;5048563;28;20116;-59
2023/01/03 06:05:21;;;;;;;314.27;41.40;;;3.10;99.90;;;;;;5047764;28;20041;-59
2023/01/03 06:07:47;;;;;;;309.63;40.50;;;3.10;99.90;;;;;;5048559;28;20108;-61
2023/01/03 06:10:13;;;;;;;308.58;42.47;;;3.00;99.90;;;;;;5047949;28;20555;-59
2023/01/03 06:12:38;;;;;;;232.90;34.40;;;2.90;99.90;;;;;;5048509;28;20033;-58
2023/01/03 06:15:05;;;;;;;324.33;46.23;;;2.90;99.90;;;;;;5047972;28;20037;-58
2023/01/03 06:20:15;;;;;;;320.80;41.72;;;2.80;99.90;;;;;;5048671;28;20381;-57
2023/01/03 06:22:40;;;;;;;331.43;44.00;;;2.80;99.90;;;;;;5048399;28;20076;-59
2023/01/03 06:25:06;;;;;;;329.27;43.83;;;2.80;99.90;;;;;;5047953;28;20044;-57
2023/01/03 06:27:32;;;;;;;327.90;38.60;;;2.80;99.90;;;;;;5048656;28;20172;-59
2023/01/03 06:29:58;;;;;;;310.07;47.37;;;2.80;99.90;;;;;;5048740;28;20329;-58
2023/01/03 06:32:24;;;;;;;335.58;52.10;;;2.80;99.90;;;;;;5048722;28;20115;-60
2023/01/03 06:34:49;;;;;;;250.68;41.50;;;2.80;99.90;;;;;;5047376;28;20198;-59
2023/01/03 06:37:15;;;;;;;238.70;43.77;;;2.80;99.90;;;;;;5048036;28;20033;-56
2023/01/03 06:39:40;;;;;;;253.63;37.47;;;2.70;99.90;;;;;;5048865;28;20494;-58
2023/01/03 06:42:38;;;;;;;262.10;40.67;;;2.70;99.90;;;;;;5048465;28;20051;-58
2023/01/03 06:53:16;;;;;;;268.45;45.10;;;2.70;99.90;;;;;;5047107;28;20040;-58
2023/01/03 06:55:44;;;;;;;286.02;42.67;;;2.80;99.90;;;;;;5048068;28;20041;-59
2023/01/03 06:58:10;;;;;;;251.60;42.35;;;2.80;99.90;;;;;;5045435;28;20037;-59
2023/01/03 07:00:38;;;;;;;279.60;48.60;;;2.80;99.90;;;;;;5047808;28;20087;-57
2023/01/03 07:03:04;;;;;;;290.52;48.78;;;2.90;99.90;;;;;;5049842;28;20044;-59
2023/01/03 07:05:29;;;;;;;227.73;45.80;;;2.90;99.90;;;;;;5052557;28;20040;-56
2023/01/03 07:07:55;;;;;;;187.10;40.97;;;2.90;99.90;;;;;;5051205;28;20029;-59
2023/01/03 07:10:21;;;;;;;178.52;41.95;;;2.90;99.90;;;;;;5051824;28;20041;-59
2023/01/03 07:15:31;;;;;;;207.40;41.63;;;3.00;99.90;;;;;;5050574;28;20136;-58
2023/01/03 07:17:56;;;;;;;220.10;46.83;;;3.10;99.90;;;;;;5050948;28;20439;-58
2023/01/03 07:20:22;;;;;;;277.90;51.80;;;3.10;99.90;;;;;;5051804;28;20040;-60
2023/01/03 07:22:47;;;;;;;235.40;52.17;;;3.20;99.90;;;;;;5050773;28;20048;-60
2023/01/03 07:25:13;;;;;;;272.80;55.20;;;3.20;99.90;;;;;;5050396;28;20116;-59
2023/01/03 07:27:38;;;;;;;236.00;51.77;;;3.20;99.90;;;;;;5051310;28;20044;-60
2023/01/03 07:30:04;;;;;;;202.63;48.27;;;3.30;99.90;;;;;;5051331;28;20095;-59
2023/01/03 07:32:30;;;;;;;345.95;63.58;;;3.40;99.90;;;;;;5051481;28;20087;-58
2023/01/03 07:34:55;;;;;;;229.93;50.57;;;3.50;99.90;;;;;;5048793;28;20404;-59
2023/01/03 07:37:21;;;;;;;184.17;50.27;;;3.50;99.90;;;;;;5051443;28;20047;-59
2023/01/03 07:39:46;;;;;;;176.07;52.07;;;3.60;99.90;;;;;;5051722;28;20029;-57
2023/01/03 07:44:56;;;;;;;175.88;52.17;;;3.70;99.90;;;;;;5049695;28;20116;-59
2023/01/03 07:47:22;;;;;;;173.90;52.17;;;3.80;99.90;;;;;;5050598;28;20041;-59
2023/01/03 07:49:48;;;;;;;168.93;53.93;;;3.80;99.90;;;;;;5051412;28;20056;-58
2023/01/03 07:52:13;;;;;;;149.05;52.80;;;3.80;99.90;;;;;;5042655;28;20044;-58
2023/01/03 07:54:39;;;;;;;158.03;52.73;;;3.90;99.90;;;;;;5049078;28;20033;-58
2023/01/03 07:57:04;;;;;;;117.70;43.57;;;4.00;99.90;;;;;;5051220;28;20447;-57
2023/01/03 07:59:30;;;;;;;127.90;53.23;;;4.00;99.90;;;;;;5051126;28;20045;-58
2023/01/03 08:01:55;;;;;;;152.33;56.70;;;4.00;99.90;;;;;;5050747;28;20033;-59
2023/01/03 08:04:21;;;;;;;136.60;53.13;;;4.10;99.90;;;;;;5049672;28;20060;-58
2023/01/03 08:06:46;;;;;;;132.20;51.80;;;4.10;99.90;;;;;;5050271;28;20057;-60
2023/01/03 08:14:40;;;;;;;107.22;50.70;;;4.20;99.90;;;;;;5045433;28;20306;-57
2023/01/03 08:17:06;;;;;;;100.23;47.67;;;4.30;99.90;;;;;;5050510;28;20037;-58
2023/01/03 08:19:31;;;;;;;108.90;47.33;;;4.30;99.90;;;;;;5051224;28;20084;-59
2023/01/03 08:21:57;;;;;;;114.40;47.97;;;4.30;99.90;;;;;;5050938;28;20033;-60
2023/01/03 08:24:23;;;;;;;92.57;43.87;;;4.40;99.90;;;;;;5047689;28;20620;-57
2023/01/03 08:26:48;;;;;;;109.47;48.77;;;4.40;99.90;;;;;;5050070;28;20039;-59
2023/01/03 08:29:14;;;;;;;106.47;50.20;;;4.40;99.90;;;;;;5062522;28;20044;-57
2023/01/03 08:31:45;;;;;;;107.07;50.60;;;4.40;99.90;;;;;;5050546;28;20032;-60
2023/01/03 08:34:12;;;;;;;101.30;47.97;;;4.40;99.90;;;;;;5047063;28;20340;-58
2023/01/03 08:36:43;;;;;;;106.65;50.28;;;4.50;99.90;;;;;;5051728;28;20041;-59
2023/01/03 08:39:13;;;;;;;104.47;46.58;;;4.50;99.90;;;;;;5038442;28;20037;-57
2023/01/03 08:41:45;;;;;;;96.22;46.30;;;4.50;99.90;;;;;;5031950;28;20041;-58
2023/01/03 08:44:12;;;;;;;98.65;47.45;;;4.50;99.90;;;;;;5030333;28;20052;-58
2023/01/03 08:46:44;;;;;;;96.10;45.08;;;4.50;99.90;;;;;;5049139;28;20094;-60
2023/01/03 08:49:10;;;;;;;101.90;46.72;;;4.50;99.90;;;;;;5035847;28;20029;-58
2023/01/03 08:51:36;;;;;;;92.40;45.60;;;4.50;99.90;;;;;;5051160;28;20045;-59
2023/01/03 08:54:01;;;;;;;95.33;46.33;;;4.50;99.90;;;;;;5049943;28;20058;-58
2023/01/03 08:56:27;;;;;;;104.97;46.60;;;4.50;99.90;;;;;;5050938;28;20044;-59
2023/01/03 08:58:56;;;;;;;105.38;49.10;;;4.60;99.90;;;;;;5049630;28;20065;-58
2023/01/03 09:01:23;;;;;;;100.13;48.50;;;4.60;99.90;;;;;;5049775;28;20041;-58
2023/01/03 09:03:48;;;;;;;;;;;4.60;99.90;;;;;;5050021;28;20401;-57
2023/01/03 09:06:14;;;;;;;116.38;46.38;;;4.60;99.90;;;;;;5050026;28;19992;-60
2023/01/03 09:08:39;;;;;;;99.77;48.23;;;4.60;99.90;;;;;;5049938;28;20036;-59
2023/01/03 09:11:05;;;;;;;97.33;46.33;;;4.60;99.90;;;;;;5050092;28;20170;-60
2023/01/03 09:13:31;;;;;;;100.68;47.67;;;4.70;99.90;;;;;;5050036;28;20033;-58
2023/01/03 09:16:07;;;;;;;95.77;48.77;;;4.70;99.90;;;;;;5050488;28;20052;-60
2023/01/03 09:18:33;;;;;;;93.35;45.28;;;4.70;99.90;;;;;;5050069;28;20103;-57
2023/01/03 09:20:59;;;;;;;102.10;47.67;;;4.70;99.90;;;;;;5050175;28;20040;-60
2023/01/03 09:23:25;;;;;;;92.20;47.87;;;4.80;99.90;;;;;;5049833;28;20052;-59
2023/01/03 09:25:51;;;;;;;95.88;46.53;;;4.80;99.90;;;;;;5048807;28;20044;-59
2023/01/03 09:28:16;;;;;;;96.55;47.08;;;4.90;99.90;;;;;;5049914;28;20041;-58
2023/01/03 09:30:42;;;;;;;91.37;43.90;;;4.90;99.90;;;;;;5050298;28;20040;-55
2023/01/03 09:33:09;;;;;;;92.13;46.97;;;5.00;99.90;;;;;;5049818;28;20087;-59
2023/01/03 09:35:36;;;;;;;94.50;50.10;;;5.00;99.90;;;;;;5049709;28;20037;-59
2023/01/03 09:38:02;;;;;;;101.70;50.92;;;5.00;99.90;;;;;;5050270;28;20459;-59
2023/01/03 09:40:29;;;;;;;96.43;45.70;;;5.00;99.90;;;;;;5049981;28;20080;-59
2023/01/03 09:43:12;;;;;;;98.07;49.95;;;5.00;99.90;;;;;;5050091;28;20063;-59
2023/01/03 09:45:50;;;;;;;93.90;45.17;;;5.00;99.90;;;;;;5049681;28;20565;-58
2023/01/03 09:48:24;;;;;;;95.78;45.58;;;5.00;99.90;;;;;;5049677;28;20103;-56
2023/01/03 09:50:50;;;;;;;103.88;49.35;;;5.00;99.90;;;;;;5050166;28;20033;-57
2023/01/03 10:05:12;;;;;;;107.32;52.47;;;5.10;99.90;;;;;;5029313;28;20048;-53
2023/01/03 10:08:08;;;;;;;101.45;51.50;;;5.10;99.90;;;;;;5045170;28;20051;-56
2023/01/03 10:10:36;;;;;;;118.80;56.05;;;5.20;99.90;;;;;;5030111;28;20485;-56
2023/01/03 10:13:23;;;;;;;113.30;53.00;;;5.20;99.90;;;;;;5045044;28;20056;-56
2023/01/03 10:16:07;;;;;;;113.27;52.53;;;5.20;99.90;;;;;;5044665;28;20033;-56
2023/01/03 10:18:35;;;;;;;105.03;55.70;;;5.20;99.90;;;;;;5046635;28;20279;-56
2023/01/03 10:21:11;;;;;;;105.90;51.42;;;5.20;99.90;;;;;;5048759;28;20140;-55
2023/01/03 10:23:37;;;;;;;94.22;48.17;;;5.20;99.90;;;;;;5047735;28;20506;-59
2023/01/03 10:26:09;;;;;;;98.37;51.17;;;5.30;99.90;;;;;;5049753;28;20044;-57
2023/01/03 10:28:39;;;;;;;98.88;51.63;;;5.40;99.90;;;;;;5048927;28;20116;-56
2023/01/03 10:31:31;;;;;;;100.03;50.92;;;5.40;99.90;;;;;;5049978;28;20059;-56
2023/01/03 10:33:56;;;;;;;90.45;49.40;;;5.50;99.90;;;;;;5048847;28;20033;-56
2023/01/03 10:36:22;;;;;;;105.67;53.60;;;5.50;99.90;;;;;;5049147;28;20567;-58
2023/01/03 10:39:01;;;;;;;98.93;52.43;;;5.50;99.90;;;;;;5049325;28;20429;-56
2023/01/03 10:41:34;;;;;;;101.60;49.97;;;5.60;99.90;;;;;;5032192;28;20116;-56
2023/01/03 10:44:02;;;;;;;102.32;53.83;;;5.60;99.90;;;;;;5028292;28;20049;-56
2023/01/03 10:46:29;;;;;;;109.53;53.95;;;5.70;99.90;;;;;;5029150;28;20520;-58
2023/01/03 10:49:10;;;;;;;96.47;50.53;;;5.70;99.90;;;;;;5029478;28;20049;-57
2023/01/03 10:51:39;;;;;;;103.90;52.50;;;5.80;99.90;;;;;;5029557;28;20049;-56
2023/01/03 10:54:19;;;;;;;90.85;48.35;;;5.80;99.90;;;;;;5033277;28;20422;-58
2023/01/03 10:56:46;;;;;;;81.90;45.75;;;5.80;99.90;;;;;;5049293;28;20041;-57
2023/01/03 10:59:15;;;;;;;88.75;47.35;;;5.80;99.90;;;;;;5049135;28;20037;-58
2023/01/03 11:02:11;;;;;;;93.22;46.58;;;5.90;99.90;;;;;;5048610;28;20040;-58
2023/01/03 11:04:37;;;;;;;87.35;47.83;;;5.90;99.90;;;;;;5041876;28;20049;-57
2023/01/03 11:07:14;;;;;;;84.40;46.50;;;5.90;99.90;;;;;;5048476;28;20047;-57
2023/01/03 11:09:46;;;;;;;74.10;41.42;;;5.90;99.90;;;;;;5048930;28;20095;-58
2023/01/03 11:12:22;;;;;;;67.15;38.97;;;6.00;99.90;;;;;;5048961;28;20498;-59
2023/01/03 11:14:54;;;;;;;65.05;36.53;;;6.10;99.90;;;;;;5047481;28;20124;-58
2023/01/03 11:17:21;;;;;;;53.65;32.78;;;6.10;99.90;;;;;;5048622;28;20076;-57
2023/01/03 11:19:48;;;;;;;51.00;29.63;;;6.20;99.90;;;;;;5049142;28;20041;-57
2023/01/03 11:22:43;;;;;;;39.95;25.45;;;6.20;99.90;;;;;;5049240;28;20124;-57
2023/01/03 11:25:11;;;;;;;43.92;27.23;;;6.30;99.90;;;;;;5045841;28;20124;-59
2023/01/03 11:28:14;;;;;;;43.25;24.05;;;6.30;99.90;;;;;;5047685;28;20513;-59
2023/01/03 11:31:05;;;;;;;38.08;23.95;;;6.30;99.90;;;;;;5038474;28;20037;-57
2023/01/03 11:34:17;;;;;;;44.03;23.15;;;6.40;99.90;;;;;;5048118;28;20429;-59
2023/01/03 11:37:08;;;;;;;37.55;23.60;;;6.40;99.90;;;;;;5025668;28;20045;-60
2023/01/03 11:40:01;;;;;;;28.20;20.00;;;6.40;99.90;;;;;;5029745;28;20482;-59
2023/01/03 11:42:32;;;;;;;35.92;23.65;;;6.40;99.90;;;;;;5034923;28;20478;-57
2023/01/03 11:45:20;;;;;;;39.75;20.90;;;6.40;99.90;;;;;;5047588;28;20040;-59
2023/01/03 11:48:01;;;;;;;37.00;20.67;;;6.40;99.90;;;;;;5048333;28;20449;-61
2023/01/03 11:50:50;;;;;;;33.65;19.55;;;6.50;99.90;;;;;;5052189;28;20043;-58
2023/01/03 11:53:28;;;;;;;30.48;17.42;;;6.50;99.90;;;;;;5051446;28;20076;-60
2023/01/03 11:56:21;;;;;;;27.77;18.23;;;6.50;99.90;;;;;;5051787;28;20048;-60
2023/01/03 11:59:02;;;;;;;24.80;17.02;;;6.50;99.90;;;;;;5044856;28;20498;-56
2023/01/03 12:01:31;;;;;;;30.42;18.23;;;6.60;99.90;;;;;;5045208;28;20045;-58
2023/01/03 12:04:15;;;;;;;27.95;16.40;;;6.60;99.90;;;;;;5051082;28;20049;-60
2023/01/03 12:06:47;;;;;;;28.35;18.65;;;6.60;99.90;;;;;;5050828;28;20080;-58
2023/01/03 12:09:38;;;;;;;26.55;17.95;;;6.60;99.90;;;;;;5049356;28;20025;-60
2023/01/03 12:12:12;;;;;;;24.88;16.25;;;6.60;99.90;;;;;;5051758;28;20044;-58
2023/01/03 12:14:51;;;;;;;32.33;18.83;;;6.70;99.90;;;;;;5050671;28;20392;-59
2023/01/03 12:17:42;;;;;;;30.02;18.67;;;6.70;99.90;;;;;;5051161;28;20033;-58
2023/01/03 12:20:32;;;;;;;25.38;15.25;;;6.70;99.90;;;;;;5052134;28;20048;-57
2023/01/03 12:23:14;;;;;;;30.20;18.05;;;6.70;99.90;;;;;;5050395;28;20112;-58
2023/01/03 12:25:46;;;;;;;30.30;17.02;;;6.80;99.90;;;;;;5049872;28;20053;-59
2023/01/03 12:28:21;;;;;;;31.23;19.60;;;6.80;99.90;;;;;;5048797;28;20048;-59
2023/01/03 12:30:50;;;;;;;28.88;18.50;;;6.80;99.90;;;;;;5051197;28;20214;-59
2023/01/03 12:33:47;;;;;;;32.92;19.42;;;6.80;99.90;;;;;;5050403;28;20124;-59
2023/01/03 12:36:33;;;;;;;35.65;20.58;;;6.80;99.90;;;;;;5051729;28;20410;-59
2023/01/03 12:39:27;;;;;;;31.33;17.70;;;6.80;99.90;;;;;;5051584;28;20041;-59
2023/01/03 12:42:11;;;;;;;30.65;19.95;;;6.90;99.90;;;;;;5051248;28;20041;-58
2023/01/03 12:44:40;;;;;;;33.65;18.33;;;6.90;99.90;;;;;;5050823;28;20045;-57
2023/01/03 12:47:46;;;;;;;33.25;18.40;;;6.90;99.90;;;;;;5051086;28;20037;-57
2023/01/03 12:50:29;;;;;;;31.92;19.38;;;6.90;99.90;;;;;;5041797;28;20038;-58
2023/01/03 12:53:10;;;;;;;31.98;17.67;;;6.90;99.90;;;;;;5030952;28;20064;-58
2023/01/03 12:55:52;;;;;;;36.33;18.50;;;6.90;99.90;;;;;;5030766;28;20069;-59
2023/01/03 12:58:48;;;;;;;30.67;19.33;;;6.90;99.90;;;;;;5031062;28;20460;-58
2023/01/03 13:01:16;;;;;;;27.30;17.92;;;7.00;99.90;;;;;;5030229;28;20048;-58
2023/01/03 13:03:51;;;;;;;25.02;17.67;;;7.00;99.90;;;;;;5049660;28;20045;-59
2023/01/03 13:06:29;;;;;;;27.35;17.08;;;7.00;99.90;;;;;;5050736;28;20048;-58
2023/01/03 13:09:04;;;;;;;27.42;18.15;;;7.10;99.90;;;;;;5051478;28;20072;-57
2023/01/03 13:11:33;;;;;;;26.52;15.90;;;7.00;99.90;;;;;;5051080;28;20052;-58
2023/01/03 13:14:16;;;;;;;25.27;16.00;;;7.10;99.90;;;;;;5050503;28;20041;-57
2023/01/03 13:17:13;;;;;;;27.35;17.40;;;7.10;99.90;;;;;;5051548;28;20048;-56
2023/01/03 13:19:39;;;;;;;23.13;15.57;;;7.10;99.90;;;;;;5051186;28;20158;-58
2023/01/03 13:22:31;;;;;;;28.75;15.85;;;7.10;99.90;;;;;;5051086;28;20049;-56
2023/01/03 13:25:26;;;;;;;21.25;13.30;;;7.10;99.90;;;;;;5049594;28;20047;-60
2023/01/03 13:27:55;;;;;;;27.02;15.65;;;7.10;99.90;;;;;;5049786;28;20048;-56
2023/01/03 13:30:27;;;;;;;29.33;16.10;;;7.10;99.90;;;;;;5047989;28;20037;-59
2023/01/03 13:33:24;;;;;;;18.42;14.43;;;7.10;99.90;;;;;;5041918;28;20036;-60
2023/01/03 13:35:59;;;;;;;22.95;14.82;;;7.20;99.90;;;;;;5002092;28;20049;-59
2023/01/03 13:38:34;;;;;;;23.48;13.88;;;7.20;99.90;;;;;;5001594;28;20057;-61
2023/01/03 13:41:03;;;;;;;21.27;13.65;;;7.20;99.90;;;;;;5003659;28;20073;-58
2023/01/03 13:43:34;;;;;;;22.02;13.27;;;7.20;99.90;;;;;;5001802;28;20038;-59
2023/01/03 13:46:30;;;;;;;22.33;12.70;;;7.20;99.90;;;;;;5001813;28;20091;-58
2023/01/03 13:49:02;;;;;;;23.35;13.73;;;7.30;99.90;;;;;;5000634;28;20054;-57
2023/01/03 13:51:40;;;;;;;22.27;12.63;;;7.30;99.90;;;;;;4991693;28;20124;-57
2023/01/03 13:54:11;;;;;;;24.23;13.30;;;7.30;99.90;;;;;;4999603;28;20069;-61
2023/01/03 13:56:41;;;;;;;18.60;13.13;;;7.40;99.90;;;;;;5001870;28;20115;-59
2023/01/03 13:59:13;;;;;;;18.23;13.27;;;7.40;99.90;;;;;;5001434;28;20141;-59
2023/01/03 14:01:59;;;;;;;16.17;11.57;;;7.40;99.90;;;;;;5002018;28;20282;-58
2023/01/03 14:04:46;;;;;;;21.58;12.55;;;7.40;99.90;;;;;;5001318;28;20046;-57